createdAt,value
2024-05-09T00:01:56.012Z,0.90
2024-05-09T00:04:28.418Z,1.15
2024-05-09T00:07:01.026Z,1.13
2024-05-09T00:09:30.692Z,1.30
2024-05-09T00:12:00.545Z,1.13
2024-05-09T00:14:30.462Z,1.20
2024-05-09T00:17:00.335Z,1.17
2024-05-09T00:19:32.803Z,1.10
2024-05-09T00:22:02.710Z,1.00
2024-05-09T00:24:32.355Z,1.23
2024-05-09T00:27:02.034Z,1.05
2024-05-09T00:29:31.722Z,1.27
2024-05-09T00:32:01.601Z,1.20
2024-05-09T00:34:33.989Z,1.10
2024-05-09T00:37:03.735Z,1.10
2024-05-09T00:39:33.429Z,1.40
2024-05-09T00:42:03.082Z,1.15
2024-05-09T00:44:32.775Z,1.10
2024-05-09T00:47:02.663Z,1.10
2024-05-09T00:49:36.174Z,1.30
2024-05-09T00:52:06.535Z,1.27
2024-05-09T00:54:36.416Z,1.20
2024-05-09T00:57:07.270Z,1.05
2024-05-09T00:59:37.539Z,1.15
2024-05-09T01:02:09.134Z,1.00
2024-05-09T01:04:41.683Z,1.00
2024-05-09T01:07:13.647Z,1.30
2024-05-09T01:09:43.396Z,0.93
2024-05-09T01:12:13.318Z,1.05
2024-05-09T01:14:43.112Z,0.88
2024-05-09T01:17:13.214Z,1.25
2024-05-09T01:19:46.657Z,1.00
2024-05-09T01:22:16.421Z,0.90
2024-05-09T01:24:48.766Z,1.20
2024-05-09T01:27:18.425Z,1.23
2024-05-09T01:29:48.130Z,1.10
2024-05-09T01:32:17.823Z,1.42
2024-05-09T01:34:47.655Z,1.30
2024-05-09T01:37:17.330Z,1.10
2024-05-09T01:39:49.722Z,1.10
2024-05-09T01:42:19.659Z,1.20
2024-05-09T01:44:49.574Z,1.00
2024-05-09T01:47:19.359Z,1.25
2024-05-09T01:49:49.165Z,1.15
2024-05-09T01:52:18.933Z,1.40
2024-05-09T01:54:51.312Z,1.02
2024-05-09T01:57:21.152Z,1.50
2024-05-09T01:59:50.936Z,1.42
2024-05-09T02:02:21.256Z,1.15
2024-05-09T02:04:51.345Z,1.20
2024-05-09T02:07:21.064Z,1.15
2024-05-09T02:09:54.322Z,1.25
2024-05-09T02:12:24.150Z,1.00
2024-05-09T02:14:54.423Z,1.13
2024-05-09T02:17:24.363Z,1.30
2024-05-09T02:19:54.189Z,1.33
2024-05-09T02:22:23.834Z,1.40
2024-05-09T02:24:56.199Z,1.20
2024-05-09T02:27:25.996Z,0.95
2024-05-09T02:29:55.640Z,1.40
2024-05-09T02:32:25.478Z,1.23
2024-05-09T02:34:55.243Z,1.23
2024-05-09T02:37:24.928Z,1.30
2024-05-09T02:39:54.617Z,1.25
2024-05-09T02:42:24.379Z,0.90
2024-05-09T02:44:51.412Z,1.48
2024-05-09T02:47:21.426Z,1.48
2024-05-09T02:49:48.681Z,1.10
2024-05-09T02:52:20.561Z,1.23
2024-05-09T02:54:47.653Z,1.27
2024-05-09T02:57:19.926Z,1.50
2024-05-09T02:59:47.722Z,1.10
2024-05-09T03:02:17.624Z,1.55
2024-05-09T03:04:45.142Z,1.30
2024-05-09T03:07:15.019Z,1.20
2024-05-09T03:09:46.311Z,1.10
2024-05-09T03:12:16.083Z,1.30
2024-05-09T03:14:45.876Z,1.30
2024-05-09T03:17:15.653Z,1.25
2024-05-09T03:19:42.781Z,1.30
2024-05-09T03:22:12.605Z,1.23
2024-05-09T03:24:39.838Z,1.15
2024-05-09T03:27:09.532Z,1.27
2024-05-09T03:29:37.344Z,1.10
2024-05-09T03:32:10.343Z,1.27
2024-05-09T03:34:39.438Z,1.58
2024-05-09T03:37:09.141Z,1.30
2024-05-09T03:39:39.026Z,1.20
2024-05-09T03:42:08.802Z,1.77
2024-05-09T03:44:38.528Z,1.50
2024-05-09T03:47:08.429Z,1.30
2024-05-09T03:49:38.220Z,1.58
2024-05-09T03:52:08.971Z,1.20
2024-05-09T03:54:36.044Z,1.00
2024-05-09T03:57:08.872Z,1.50
2024-05-09T03:59:36.916Z,1.48
2024-05-09T04:02:07.089Z,1.50
2024-05-09T04:04:36.925Z,1.63
2024-05-09T04:07:07.668Z,1.27
2024-05-09T04:09:34.771Z,1.60
2024-05-09T04:12:04.589Z,1.33
2024-05-09T04:14:32.152Z,1.40
2024-05-09T04:17:01.932Z,1.23
2024-05-09T04:19:29.211Z,1.48
2024-05-09T04:22:01.603Z,1.50
2024-05-09T04:24:28.893Z,1.73
2024-05-09T04:26:58.617Z,1.52
2024-05-09T04:29:25.814Z,1.75
2024-05-09T04:31:55.536Z,1.50
2024-05-09T04:34:22.833Z,1.38
2024-05-09T04:36:52.636Z,1.58
2024-05-09T04:39:22.294Z,1.40
2024-05-09T04:41:52.012Z,1.42
2024-05-09T04:44:19.090Z,1.40
2024-05-09T04:46:50.222Z,1.85
2024-05-09T04:49:17.598Z,1.50
2024-05-09T04:51:47.334Z,1.48
2024-05-09T04:54:26.050Z,1.70
2024-05-09T04:57:06.358Z,1.48
2024-05-09T04:59:33.570Z,1.50
2024-05-09T05:02:03.319Z,1.30
2024-05-09T05:04:31.131Z,1.23
2024-05-09T05:07:02.899Z,1.40
2024-05-09T05:09:30.335Z,1.30
2024-05-09T05:12:02.062Z,1.27
2024-05-09T05:14:31.959Z,1.40
2024-05-09T05:17:01.778Z,1.40
2024-05-09T05:19:29.109Z,1.58
2024-05-09T05:21:59.142Z,1.30
2024-05-09T05:24:28.608Z,1.00
2024-05-09T05:26:58.333Z,1.30
2024-05-09T05:29:25.453Z,1.67
2024-05-09T05:31:57.948Z,1.55
2024-05-09T05:34:25.043Z,1.45
2024-05-09T05:36:54.752Z,1.40
2024-05-09T05:39:21.899Z,1.23
2024-05-09T05:41:51.602Z,1.20
2024-05-09T05:44:18.765Z,1.40
2024-05-09T05:46:48.520Z,1.38
2024-05-09T05:49:18.490Z,1.35
2024-05-09T05:51:48.458Z,1.10
2024-05-09T05:54:15.619Z,1.20
2024-05-09T05:56:46.778Z,1.20
2024-05-09T05:59:15.448Z,1.55
2024-05-09T06:01:45.716Z,1.70
2024-05-09T06:04:12.962Z,1.25
2024-05-09T06:06:45.320Z,1.48
2024-05-09T06:09:12.465Z,1.45
2024-05-09T06:11:43.030Z,1.17
2024-05-09T06:14:10.283Z,1.33
2024-05-09T06:16:39.951Z,1.10
2024-05-09T06:19:07.209Z,1.00
2024-05-09T06:21:36.975Z,1.10
2024-05-09T06:24:07.304Z,1.20
2024-05-09T06:26:37.151Z,1.30
2024-05-09T06:29:04.279Z,1.20
2024-05-09T06:31:34.006Z,1.25
2024-05-09T06:34:01.212Z,1.00
2024-05-09T06:36:33.502Z,1.10
2024-05-09T06:39:00.582Z,1.15
2024-05-09T06:41:32.918Z,1.50
2024-05-09T06:44:00.179Z,0.98
2024-05-09T06:46:30.011Z,1.13
2024-05-09T06:48:57.393Z,1.10
2024-05-09T06:51:27.147Z,1.00
2024-05-09T06:53:54.804Z,1.17
2024-05-09T06:56:24.624Z,1.00
2024-05-09T06:58:54.634Z,1.25
2024-05-09T07:01:24.500Z,1.00
2024-05-09T07:03:51.875Z,1.23
2024-05-09T07:06:21.708Z,1.05
2024-05-09T07:08:50.228Z,1.02
2024-05-09T07:11:21.646Z,0.65
2024-05-09T07:13:49.427Z,1.25
2024-05-09T07:16:21.839Z,1.08
2024-05-09T07:18:54.923Z,1.00
2024-05-09T07:21:25.008Z,0.90
2024-05-09T07:23:52.192Z,1.00
2024-05-09T07:26:21.918Z,1.35
2024-05-09T07:28:49.136Z,0.95
2024-05-09T07:31:23.409Z,1.10
2024-05-09T07:33:50.683Z,1.13
2024-05-09T07:36:20.389Z,1.02
2024-05-09T07:38:47.659Z,1.20
2024-05-09T07:41:17.449Z,1.20
2024-05-09T07:43:44.595Z,1.25
2024-05-09T07:53:52.555Z,1.55
2024-05-09T07:56:26.035Z,1.42
2024-05-09T07:58:54.144Z,1.02
2024-05-09T08:01:25.878Z,1.10
2024-05-09T08:03:56.088Z,1.10
2024-05-09T08:06:26.786Z,1.02
2024-05-09T08:08:54.439Z,0.95
2024-05-09T08:11:24.296Z,1.08
2024-05-09T08:13:51.603Z,1.33
2024-05-09T08:16:21.520Z,1.33
2024-05-09T08:18:49.101Z,0.60
2024-05-09T08:21:21.484Z,1.20
2024-05-09T08:23:48.569Z,1.33
2024-05-09T08:26:18.222Z,1.48
2024-05-09T08:28:45.239Z,1.60
2024-05-09T08:31:15.136Z,1.60
2024-05-09T08:33:47.034Z,1.80
2024-05-09T08:36:17.137Z,1.45
2024-05-09T08:38:46.855Z,1.60
2024-05-09T08:41:18.018Z,2.20
2024-05-09T08:43:46.134Z,2.42
2024-05-09T08:46:18.552Z,1.83
2024-05-09T08:48:48.312Z,1.75
2024-05-09T08:51:18.471Z,1.52
2024-05-09T08:53:48.334Z,1.77
2024-05-09T08:56:19.887Z,1.35
2024-05-09T08:58:49.389Z,1.30
2024-05-09T09:01:20.923Z,1.50
2024-05-09T09:03:49.761Z,1.35
2024-05-09T09:06:23.093Z,1.27
2024-05-09T09:08:53.774Z,1.27
2024-05-09T09:11:23.697Z,1.42
2024-05-09T09:13:50.774Z,1.40
2024-05-09T09:16:20.664Z,1.48
2024-05-09T09:18:48.153Z,1.50
2024-05-09T09:21:18.327Z,1.00
2024-05-09T09:23:45.374Z,1.30
2024-05-09T09:26:21.288Z,1.42
2024-05-09T09:28:48.773Z,1.30
2024-05-09T09:31:22.002Z,1.00
2024-05-09T09:33:49.605Z,1.10
2024-05-09T09:36:19.412Z,1.30
2024-05-09T09:38:47.650Z,1.13
2024-05-09T09:41:24.728Z,1.40
2024-05-09T09:43:53.628Z,1.48
2024-05-09T09:46:24.324Z,1.20
2024-05-09T09:48:52.697Z,1.27
2024-05-09T09:51:23.672Z,1.52
2024-05-09T09:53:52.937Z,2.13
2024-05-09T09:56:26.579Z,1.17
2024-05-09T09:58:57.452Z,1.20
2024-05-09T10:01:27.325Z,1.10
2024-05-09T10:03:54.918Z,1.08
2024-05-09T10:06:29.050Z,1.50
2024-05-09T10:08:56.763Z,1.00
2024-05-09T10:11:37.049Z,1.17
2024-05-09T10:14:07.547Z,1.00
2024-05-09T10:16:37.605Z,1.45
2024-05-09T10:19:04.716Z,1.20
2024-05-09T10:21:34.506Z,1.15
2024-05-09T10:24:04.001Z,1.75
2024-05-09T10:26:37.790Z,1.13
2024-05-09T10:29:12.638Z,1.27
2024-05-09T10:31:45.894Z,1.45
2024-05-09T10:34:20.374Z,1.23
2024-05-09T10:36:55.505Z,1.30
2024-05-09T10:39:23.121Z,1.33
2024-05-09T10:41:55.452Z,1.20
2024-05-09T10:44:22.508Z,1.40
2024-05-09T10:46:54.770Z,1.30
2024-05-09T10:49:22.869Z,1.30
2024-05-09T10:51:52.767Z,1.20
2024-05-09T10:54:19.933Z,1.30
2024-05-09T10:56:58.302Z,1.27
2024-05-09T10:59:33.131Z,1.50
2024-05-09T11:02:06.506Z,1.40
2024-05-09T11:04:34.519Z,1.85
2024-05-09T11:07:07.413Z,1.33
2024-05-09T11:09:35.983Z,1.30
2024-05-09T11:12:06.411Z,1.55
2024-05-09T11:14:36.155Z,1.60
2024-05-09T11:17:07.830Z,1.70
2024-05-09T11:19:37.991Z,1.88
2024-05-09T11:22:08.390Z,1.30
2024-05-09T11:24:38.051Z,1.65
2024-05-09T11:27:08.779Z,1.70
2024-05-09T11:29:43.277Z,1.50
2024-05-09T11:32:16.418Z,1.60
2024-05-09T11:34:46.423Z,1.70
2024-05-09T11:37:14.076Z,1.60
2024-05-09T11:39:43.935Z,1.73
2024-05-09T11:42:11.104Z,1.23
2024-05-09T11:44:40.836Z,1.58
2024-05-09T11:47:10.713Z,1.40
2024-05-09T11:49:40.552Z,1.50
2024-05-09T11:52:07.787Z,1.73
2024-05-09T11:54:37.735Z,1.30
2024-05-09T11:57:05.138Z,1.75
2024-05-09T11:59:34.981Z,1.60
2024-05-09T12:02:02.232Z,2.47
2024-05-09T12:04:34.929Z,2.25
2024-05-09T12:07:02.278Z,2.42
2024-05-09T12:09:32.164Z,2.35
2024-05-09T12:11:59.363Z,2.85
2024-05-09T12:14:29.036Z,2.10
2024-05-09T12:16:56.553Z,2.40
2024-05-09T12:19:26.335Z,1.90
2024-05-09T12:21:56.139Z,2.17
2024-05-09T12:24:28.883Z,2.17
2024-05-09T12:26:56.209Z,1.92
2024-05-09T12:29:26.352Z,1.95
2024-05-09T12:31:53.516Z,1.88
2024-05-09T12:34:23.268Z,1.67
2024-05-09T12:36:50.534Z,2.08
2024-05-09T12:39:22.969Z,2.35
2024-05-09T12:41:50.133Z,1.83
2024-05-09T12:44:19.951Z,2.38
2024-05-09T12:46:50.126Z,2.03
2024-05-09T12:49:20.515Z,2.08
2024-05-09T12:51:47.835Z,2.17
2024-05-09T12:54:17.538Z,1.98
2024-05-09T12:56:47.408Z,2.60
2024-05-09T12:59:17.099Z,1.60
2024-05-09T13:01:44.250Z,1.73
2024-05-09T13:04:14.291Z,1.60
2024-05-09T13:06:42.105Z,1.92
2024-05-09T13:09:11.901Z,1.83
2024-05-09T13:11:38.959Z,1.90
2024-05-09T13:14:11.382Z,1.90
2024-05-09T13:16:38.692Z,1.92
2024-05-09T13:19:09.647Z,1.67
2024-05-09T13:21:36.749Z,2.30
2024-05-09T13:24:06.751Z,2.10
2024-05-09T13:26:33.907Z,1.65
2024-05-09T13:29:03.867Z,2.25
2024-05-09T13:31:33.705Z,2.00
2024-05-09T13:34:03.820Z,1.88
2024-05-09T13:36:31.173Z,2.10
2024-05-09T13:39:00.895Z,1.85
2024-05-09T13:41:27.975Z,1.80
2024-05-09T13:43:57.714Z,1.77
2024-05-09T13:46:24.935Z,2.22
2024-05-09T13:48:57.546Z,1.98
2024-05-09T13:51:24.765Z,1.92
2024-05-09T13:53:56.711Z,1.60
2024-05-09T13:56:24.000Z,2.08
2024-05-09T13:58:54.920Z,1.85
2024-05-09T14:01:22.070Z,1.77
2024-05-09T14:03:52.167Z,1.80
2024-05-09T14:06:22.306Z,1.98
2024-05-09T14:08:52.066Z,2.13
2024-05-09T14:11:19.335Z,2.33
2024-05-09T14:13:49.178Z,1.88
2024-05-09T14:16:16.393Z,2.03
2024-05-09T14:18:46.548Z,1.88
2024-05-09T14:21:16.366Z,1.83
2024-05-09T14:23:46.139Z,1.77
2024-05-09T14:26:16.314Z,1.67
2024-05-09T14:28:43.481Z,2.53
2024-05-09T14:31:13.261Z,1.90
2024-05-09T14:33:40.444Z,1.83
2024-05-09T14:36:10.924Z,2.40
2024-05-09T14:38:40.021Z,2.60
2024-05-09T14:41:13.443Z,2.90
2024-05-09T14:43:43.364Z,3.92
2024-05-09T14:46:16.145Z,4.53
2024-05-09T14:48:43.576Z,3.80
2024-05-09T14:51:13.492Z,3.20
2024-05-09T14:53:40.688Z,2.75
2024-05-09T14:56:14.566Z,3.05
2024-05-09T14:58:41.784Z,2.92
2024-05-09T15:01:11.538Z,2.80
2024-05-09T15:03:38.782Z,2.45
2024-05-09T15:06:08.838Z,3.13
2024-05-09T15:08:36.017Z,2.80
2024-05-09T15:11:05.806Z,2.47
2024-05-09T15:13:35.754Z,2.60
2024-05-09T15:16:05.626Z,2.35
2024-05-09T15:18:33.001Z,2.78
2024-05-09T15:21:02.932Z,2.33
2024-05-09T15:23:30.171Z,2.45
2024-05-09T15:25:59.958Z,2.40
2024-05-09T15:28:27.151Z,2.30
2024-05-09T15:31:00.394Z,1.83
2024-05-09T15:33:28.005Z,1.98
2024-05-09T15:35:57.758Z,2.88
2024-05-09T15:38:26.414Z,2.15
2024-05-09T15:40:56.205Z,2.50
2024-05-09T15:43:23.340Z,2.55
2024-05-09T15:45:53.133Z,2.20
2024-05-09T15:48:23.076Z,2.17
2024-05-09T15:50:53.077Z,1.80
2024-05-09T15:53:20.259Z,2.00
2024-05-09T15:55:49.975Z,2.20
2024-05-09T15:58:17.518Z,2.10
2024-05-09T16:00:49.596Z,2.03
2024-05-09T16:03:19.591Z,2.58
2024-05-09T16:05:53.226Z,2.55
2024-05-09T16:08:20.489Z,2.38
2024-05-09T16:10:50.402Z,2.50
2024-05-09T16:13:18.047Z,2.55
2024-05-09T16:15:48.562Z,2.38
2024-05-09T16:18:16.059Z,2.08
2024-05-09T16:20:48.523Z,2.50
2024-05-09T16:23:19.888Z,2.47
2024-05-09T16:25:51.447Z,2.45
2024-05-09T16:28:20.229Z,2.47
2024-05-09T16:30:50.664Z,2.60
2024-05-09T16:33:20.920Z,2.40
2024-05-09T16:35:50.883Z,2.50
2024-05-09T16:38:20.554Z,2.72
2024-05-09T16:40:50.798Z,2.38
2024-05-09T16:43:18.088Z,2.60
2024-05-09T16:45:47.911Z,2.58
2024-05-09T16:48:15.167Z,3.20
2024-05-09T16:50:45.370Z,2.55
2024-05-09T16:53:13.674Z,2.83
2024-05-09T16:55:46.143Z,2.60
2024-05-09T16:58:13.482Z,2.50
2024-05-09T17:00:44.457Z,2.75
2024-05-09T17:03:14.872Z,2.17
2024-05-09T17:05:47.228Z,2.50
2024-05-09T17:08:16.995Z,2.90
2024-05-09T17:10:51.057Z,2.45
2024-05-09T17:13:21.861Z,3.08
2024-05-09T17:15:52.330Z,2.72
2024-05-09T17:18:22.261Z,2.60
2024-05-09T17:20:52.541Z,2.70
2024-05-09T17:23:19.656Z,2.85
2024-05-09T17:25:52.144Z,2.72
2024-05-09T17:28:19.493Z,2.70
2024-05-09T17:30:49.395Z,2.65
2024-05-09T17:33:16.747Z,2.95
2024-05-09T17:35:50.357Z,2.65
2024-05-09T17:38:18.232Z,3.20
2024-05-09T17:40:47.948Z,2.90
2024-05-09T17:43:17.768Z,2.65
2024-05-09T17:45:47.738Z,2.72
2024-05-09T17:48:15.199Z,2.88
2024-05-09T17:50:45.028Z,2.70
2024-05-09T17:53:12.193Z,2.80
2024-05-09T17:55:42.662Z,2.67
2024-05-09T17:58:11.535Z,2.80
2024-05-09T18:00:44.061Z,2.83
2024-05-09T18:03:12.364Z,2.70
2024-05-09T18:05:44.685Z,2.72
2024-05-09T18:08:13.123Z,3.28
2024-05-09T18:10:43.291Z,2.30
2024-05-09T18:13:11.876Z,2.90
2024-05-09T18:15:45.188Z,3.03
2024-05-09T18:18:13.153Z,2.72
2024-05-09T18:20:45.557Z,2.45
2024-05-09T18:23:15.842Z,2.60
2024-05-09T18:25:54.473Z,2.65
2024-05-09T18:28:21.996Z,2.70
2024-05-09T18:30:54.447Z,2.50
2024-05-09T18:33:21.843Z,2.30
2024-05-09T18:35:51.685Z,2.78
2024-05-09T18:38:19.303Z,3.00
2024-05-09T18:40:49.763Z,2.80
2024-05-09T18:43:17.430Z,2.42
2024-05-09T18:45:47.760Z,2.50
2024-05-09T18:48:17.991Z,2.78
2024-05-09T18:50:48.161Z,2.92
2024-05-09T18:53:16.186Z,3.10
2024-05-09T18:55:45.945Z,2.80
2024-05-09T18:58:13.187Z,2.50
2024-05-09T19:00:45.459Z,2.72
2024-05-09T19:03:17.893Z,2.65
2024-05-09T19:05:48.836Z,2.50
2024-05-09T19:08:18.839Z,2.67
2024-05-09T19:10:50.034Z,3.08
2024-05-09T19:13:17.336Z,2.75
2024-05-09T19:15:47.144Z,3.13
2024-05-09T19:18:15.208Z,2.40
2024-05-09T19:20:48.028Z,2.88
2024-05-09T19:23:15.195Z,2.95
2024-05-09T19:25:44.940Z,2.83
2024-05-09T19:28:12.043Z,2.13
2024-05-09T19:30:42.946Z,2.70
2024-05-09T19:33:12.989Z,2.50
2024-05-09T19:35:44.029Z,2.50
2024-05-09T19:38:13.993Z,2.70
2024-05-09T19:40:43.785Z,2.80
2024-05-09T19:43:11.324Z,2.38
2024-05-09T19:45:41.205Z,2.70
2024-05-09T19:48:08.967Z,2.70
2024-05-09T19:50:43.170Z,2.85
2024-05-09T19:53:14.830Z,3.08
2024-05-09T19:55:45.161Z,2.85
2024-05-09T19:58:13.049Z,3.05
2024-05-09T20:00:44.484Z,2.83
2024-05-09T20:03:13.438Z,2.83
2024-05-09T20:05:45.382Z,2.47
2024-05-09T20:08:16.387Z,2.35
2024-05-09T20:10:46.306Z,2.35
2024-05-09T20:13:14.090Z,2.65
2024-05-09T20:15:43.929Z,2.63
2024-05-09T20:18:11.485Z,2.55
2024-05-09T20:20:43.663Z,2.50
2024-05-09T20:23:15.294Z,2.63
2024-05-09T20:25:45.319Z,2.95
2024-05-09T20:28:12.689Z,2.60
2024-05-09T20:30:42.401Z,2.70
2024-05-09T20:33:10.137Z,2.38
2024-05-09T20:35:40.192Z,2.72
2024-05-09T20:38:07.871Z,2.58
2024-05-09T20:40:40.509Z,2.80
2024-05-09T20:43:08.760Z,2.70
2024-05-09T20:45:39.518Z,2.60
2024-05-09T20:48:08.747Z,2.72
2024-05-09T20:50:41.543Z,2.80
2024-05-09T20:53:11.078Z,2.90
2024-05-09T20:55:44.743Z,2.83
2024-05-09T20:58:12.875Z,2.63
2024-05-09T21:00:45.178Z,3.08
2024-05-09T21:03:15.595Z,2.85
2024-05-09T21:05:47.319Z,2.70
2024-05-09T21:08:15.258Z,3.00
2024-05-09T21:10:47.799Z,2.72
2024-05-09T21:13:15.238Z,2.85
2024-05-09T21:15:46.954Z,2.65
2024-05-09T21:18:14.199Z,2.60
2024-05-09T21:20:44.221Z,2.90
2024-05-09T21:23:11.361Z,2.92
2024-05-09T21:25:41.074Z,3.28
2024-05-09T21:28:10.884Z,2.53
2024-05-09T21:30:42.836Z,3.20
2024-05-09T21:33:12.759Z,3.60
2024-05-09T21:35:44.806Z,2.75
2024-05-09T21:38:14.135Z,2.80
2024-05-09T21:40:44.930Z,3.28
2024-05-09T21:43:15.037Z,3.53
2024-05-09T21:45:45.163Z,2.97
2024-05-09T21:48:13.238Z,3.40
2024-05-09T21:50:43.185Z,3.10
2024-05-09T21:53:11.203Z,3.90
2024-05-09T21:55:41.096Z,3.80
2024-05-09T21:58:08.504Z,2.95
2024-05-09T22:00:42.866Z,3.42
2024-05-09T22:03:11.435Z,3.40
2024-05-09T22:05:44.387Z,3.58
2024-05-09T22:08:12.051Z,3.25
2024-05-09T22:10:41.773Z,3.17
2024-05-09T22:13:11.952Z,3.15
2024-05-09T22:15:42.476Z,3.42
2024-05-09T22:18:12.455Z,4.68
2024-05-09T22:20:45.094Z,3.53
2024-05-09T22:23:16.493Z,3.70
2024-05-09T22:25:43.808Z,3.13
2024-05-09T22:28:17.264Z,3.30
2024-05-09T22:30:47.715Z,3.30
2024-05-09T22:33:18.113Z,3.47
2024-05-09T22:35:45.521Z,3.25
2024-05-09T22:38:15.398Z,3.33
2024-05-09T22:40:47.982Z,3.80
2024-05-09T22:43:23.812Z,3.70
2024-05-09T22:45:57.577Z,3.35
2024-05-09T22:48:28.003Z,3.53
2024-05-09T22:50:55.357Z,3.55
2024-05-09T22:53:26.335Z,3.50
2024-05-09T22:55:53.638Z,3.58
2024-05-09T22:58:24.016Z,3.60
2024-05-09T23:00:51.616Z,3.50
2024-05-09T23:03:24.298Z,3.70
2024-05-09T23:05:51.556Z,3.90
2024-05-09T23:08:21.250Z,3.30
2024-05-09T23:10:48.375Z,3.58
2024-05-09T23:13:18.250Z,3.70
2024-05-09T23:15:45.451Z,3.20
2024-05-09T23:18:15.303Z,3.38
2024-05-09T23:20:45.068Z,3.55
2024-05-09T23:23:14.752Z,3.60
2024-05-09T23:25:42.162Z,2.88
2024-05-09T23:28:12.291Z,3.20
2024-05-09T23:30:42.618Z,3.50
2024-05-09T23:33:11.263Z,3.45
2024-05-09T23:35:41.146Z,3.78
2024-05-09T23:38:10.848Z,3.50
2024-05-09T23:40:41.898Z,3.53
2024-05-09T23:43:10.639Z,4.00
2024-05-09T23:45:41.532Z,3.65
2024-05-09T23:48:09.918Z,3.35
2024-05-09T23:50:40.682Z,4.03
2024-05-09T23:53:14.289Z,3.65
2024-05-09T23:55:42.575Z,3.92
2024-05-09T23:58:12.362Z,3.13
